createdAt,value
2018-04-14T00:00:38.436Z,80.20
2018-04-14T00:03:41.695Z,80.31
2018-04-14T00:06:45.198Z,80.69
2018-04-14T00:09:48.494Z,82.75
2018-04-14T00:12:51.741Z,83.06
2018-04-14T00:15:55.005Z,82.53
2018-04-14T00:18:59.080Z,81.10
2018-04-14T00:22:02.324Z,80.86
2018-04-14T00:25:06.354Z,80.72
2018-04-14T00:28:09.610Z,80.75
2018-04-14T00:31:12.874Z,81.00
2018-04-14T00:34:16.147Z,81.03
2018-04-14T00:37:19.419Z,81.28
2018-04-14T00:40:23.458Z,80.60
2018-04-14T00:43:26.710Z,80.46
2018-04-14T00:46:29.962Z,80.42
2018-04-14T00:49:33.221Z,80.19
2018-04-14T00:52:37.261Z,80.16
2018-04-14T00:55:40.518Z,80.61
2018-04-14T00:58:43.771Z,80.48
2018-04-14T01:01:47.050Z,79.79
2018-04-14T01:04:50.528Z,79.79
2018-04-14T01:07:54.551Z,79.72
2018-04-14T01:10:58.568Z,79.77
2018-04-14T01:14:01.969Z,80.43
2018-04-14T01:17:05.215Z,80.04
2018-04-14T01:20:08.544Z,80.68
2018-04-14T01:23:12.568Z,80.62
2018-04-14T01:26:16.598Z,80.53
2018-04-14T01:29:19.864Z,80.70
2018-04-14T01:32:23.144Z,80.62
2018-04-14T01:35:26.386Z,80.73
2018-04-14T01:38:31.131Z,79.85
2018-04-14T01:41:34.373Z,79.93
2018-04-14T01:44:37.631Z,80.05
2018-04-14T01:47:40.884Z,80.06
2018-04-14T01:50:44.134Z,80.45
2018-04-14T01:53:47.402Z,80.55
2018-04-14T01:56:50.650Z,80.72
2018-04-14T01:59:53.914Z,80.38
2018-04-14T02:02:57.303Z,81.43
2018-04-14T02:06:00.549Z,81.31
2018-04-14T02:09:03.807Z,81.16
2018-04-14T02:12:07.077Z,81.32
2018-04-14T02:15:11.103Z,81.45
2018-04-14T02:18:15.113Z,81.20
2018-04-14T02:21:18.393Z,81.14
2018-04-14T02:24:22.507Z,81.14
2018-04-14T02:27:26.436Z,80.90
2018-04-14T02:30:30.459Z,80.25
2018-04-14T02:33:33.823Z,80.29
2018-04-14T02:36:37.082Z,80.61
2018-04-14T02:39:40.351Z,80.28
2018-04-14T02:42:43.599Z,80.22
2018-04-14T02:45:46.867Z,80.31
2018-04-14T02:48:50.137Z,80.60
2018-04-14T02:51:53.426Z,80.46
2018-04-14T02:54:57.457Z,80.40
2018-04-14T02:58:00.704Z,80.05
2018-04-14T03:01:04.085Z,79.90
2018-04-14T03:04:07.341Z,79.98
2018-04-14T03:07:12.318Z,79.91
2018-04-14T03:10:15.610Z,79.90
2018-04-14T03:13:19.595Z,80.02
2018-04-14T03:16:22.898Z,80.27
2018-04-14T03:19:26.419Z,79.82
2018-04-14T03:22:29.684Z,79.92
2018-04-14T03:25:33.709Z,79.80
2018-04-14T03:28:37.832Z,80.19
2018-04-14T03:31:41.075Z,79.97
2018-04-14T03:34:45.863Z,80.18
2018-04-14T03:37:49.113Z,80.27
2018-04-14T03:40:52.373Z,80.46
2018-04-14T03:43:55.624Z,80.53
2018-04-14T03:46:59.639Z,80.90
2018-04-14T03:50:03.877Z,80.94
2018-04-14T03:53:07.119Z,80.48
2018-04-14T03:56:10.373Z,80.73
2018-04-14T03:59:13.647Z,80.32
2018-04-14T04:02:17.667Z,80.31
2018-04-14T04:05:21.677Z,79.98
2018-04-14T04:08:25.689Z,79.86
2018-04-14T04:11:29.706Z,79.90
2018-04-14T04:14:33.727Z,79.98
2018-04-14T04:17:37.776Z,80.21
2018-04-14T04:20:58.830Z,80.40
2018-04-14T04:24:19.841Z,79.87
2018-04-14T04:27:23.109Z,79.53
2018-04-14T04:30:27.185Z,79.44
2018-04-14T04:33:31.194Z,79.73
2018-04-14T04:36:35.220Z,79.81
2018-04-14T04:39:39.248Z,80.39
2018-04-14T04:42:42.523Z,80.69
2018-04-14T04:45:46.554Z,80.09
2018-04-14T04:48:49.900Z,79.15
2018-04-14T04:51:53.746Z,78.84
2018-04-14T04:54:57.862Z,79.08
2018-04-14T04:58:01.880Z,79.59
2018-04-14T05:01:05.894Z,79.74
2018-04-14T05:04:10.041Z,79.63
2018-04-14T05:07:13.307Z,78.59
2018-04-14T05:10:17.570Z,78.27
2018-04-14T05:13:20.851Z,76.92
2018-04-14T05:16:25.129Z,75.58
2018-04-14T05:19:30.126Z,74.37
2018-04-14T05:22:33.509Z,74.99
2018-04-14T05:25:36.784Z,74.87
2018-04-14T05:28:40.914Z,74.53
2018-04-14T05:31:44.929Z,75.36
2018-04-14T05:34:48.372Z,74.01
2018-04-14T05:37:51.622Z,72.51
2018-04-14T05:40:55.744Z,72.96
2018-04-14T05:43:59.123Z,72.50
2018-04-14T05:47:03.360Z,72.26
2018-04-14T05:50:06.676Z,69.77
2018-04-14T05:53:09.987Z,67.97
2018-04-14T05:56:13.367Z,68.81
2018-04-14T05:59:16.649Z,68.99
2018-04-14T06:02:19.939Z,65.67
2018-04-14T06:05:23.260Z,63.70
2018-04-14T06:08:26.654Z,61.30
2018-04-14T06:11:29.969Z,59.04
2018-04-14T06:14:33.346Z,56.28
2018-04-14T06:17:36.796Z,54.15
2018-04-14T06:20:40.189Z,54.41
2018-04-14T06:23:43.581Z,53.41
2018-04-14T06:26:47.087Z,56.22
2018-04-14T06:29:50.585Z,56.95
2018-04-14T06:32:54.030Z,56.28
2018-04-14T06:35:57.418Z,56.76
2018-04-14T06:39:01.126Z,56.84
2018-04-14T06:42:04.454Z,58.91
2018-04-14T06:45:08.609Z,58.20
2018-04-14T06:48:11.983Z,56.39
2018-04-14T06:51:15.286Z,58.12
2018-04-14T06:54:18.590Z,56.60
2018-04-14T06:57:21.859Z,55.88
2018-04-14T07:00:25.906Z,58.00
2018-04-14T07:03:29.173Z,57.63
2018-04-14T07:06:33.298Z,56.09
2018-04-14T07:09:36.594Z,55.62
2018-04-14T07:12:39.870Z,54.85
2018-04-14T07:15:43.135Z,55.76
2018-04-14T07:18:46.399Z,53.41
2018-04-14T07:21:49.681Z,54.87
2018-04-14T07:24:52.961Z,56.32
2018-04-14T07:27:57.108Z,55.96
2018-04-14T07:31:00.410Z,56.96
2018-04-14T07:34:03.689Z,57.53
2018-04-14T07:37:07.709Z,56.04
2018-04-14T07:40:10.957Z,57.32
2018-04-14T07:43:14.209Z,57.21
2018-04-14T07:46:17.469Z,54.47
2018-04-14T07:49:20.785Z,54.63
2018-04-14T07:52:25.584Z,54.58
2018-04-14T07:55:28.865Z,53.31
2018-04-14T07:58:32.275Z,53.58
2018-04-14T08:01:35.629Z,53.34
2018-04-14T08:04:38.987Z,53.37
2018-04-14T08:07:42.343Z,52.91
2018-04-14T08:10:45.882Z,52.72
2018-04-14T08:13:49.941Z,54.28
2018-04-14T08:16:53.999Z,55.12
2018-04-14T08:19:57.275Z,56.43
2018-04-14T08:23:01.297Z,54.81
2018-04-14T08:26:04.654Z,53.49
2018-04-14T08:29:07.914Z,52.29
2018-04-14T08:32:11.955Z,54.40
2018-04-14T08:35:15.220Z,55.47
2018-04-14T08:38:18.581Z,55.73
2018-04-14T08:41:21.878Z,57.85
2018-04-14T08:44:25.133Z,55.73
2018-04-14T08:47:28.475Z,55.68
2018-04-14T08:50:31.780Z,55.22
2018-04-14T08:53:35.086Z,53.89
2018-04-14T08:56:38.343Z,55.05
2018-04-14T08:59:41.611Z,58.67
2018-04-14T09:02:45.470Z,54.77
2018-04-14T09:05:50.942Z,53.56
2018-04-14T09:09:18.491Z,53.57
2018-04-14T09:12:22.729Z,52.01
2018-04-14T09:15:26.047Z,52.35
2018-04-14T09:18:29.401Z,48.23
2018-04-14T09:21:33.429Z,45.80
2018-04-14T09:24:37.461Z,44.88
2018-04-14T09:27:40.736Z,45.17
2018-04-14T09:30:44.854Z,44.69
2018-04-14T09:33:48.909Z,41.16
2018-04-14T09:36:52.194Z,43.03
2018-04-14T09:39:55.506Z,41.63
2018-04-14T09:42:58.874Z,40.48
2018-04-14T09:46:02.114Z,42.57
2018-04-14T09:49:05.472Z,38.27
2018-04-14T09:52:08.909Z,40.52
2018-04-14T09:55:12.176Z,39.50
2018-04-14T09:58:15.451Z,39.01
2018-04-14T10:01:27.049Z,40.87
2018-04-14T10:04:31.484Z,39.76
2018-04-14T10:07:35.757Z,39.45
2018-04-14T10:10:39.236Z,37.76
2018-04-14T10:13:42.551Z,36.78
2018-04-14T10:16:45.911Z,35.18
2018-04-14T10:19:49.270Z,39.92
2018-04-14T10:22:52.713Z,41.68
2018-04-14T10:25:56.751Z,36.56
2018-04-14T10:29:00.030Z,36.58
2018-04-14T10:32:03.318Z,37.70
2018-04-14T10:35:06.743Z,39.54
2018-04-14T10:38:10.042Z,39.00
2018-04-14T10:41:13.353Z,38.02
2018-04-14T10:44:16.827Z,38.75
2018-04-14T10:47:20.094Z,36.48
2018-04-14T10:50:23.527Z,34.24
2018-04-14T10:53:26.805Z,35.66
2018-04-14T10:56:30.874Z,33.53
2018-04-14T10:59:34.973Z,32.77
2018-04-14T11:02:38.237Z,31.87
2018-04-14T11:05:42.269Z,33.10
2018-04-14T11:08:45.569Z,33.94
2018-04-14T11:11:48.818Z,35.42
2018-04-14T11:14:52.264Z,36.34
2018-04-14T11:17:56.376Z,37.11
2018-04-14T11:21:00.415Z,36.12
2018-04-14T11:24:03.680Z,35.07
2018-04-14T11:27:07.701Z,33.83
2018-04-14T11:30:12.134Z,35.55
2018-04-14T11:33:15.413Z,33.84
2018-04-14T11:36:19.546Z,33.44
2018-04-14T11:39:23.697Z,33.85
2018-04-14T11:42:26.959Z,32.96
2018-04-14T11:45:31.066Z,32.36
2018-04-14T11:48:34.369Z,32.19
2018-04-14T11:51:38.491Z,31.45
2018-04-14T11:54:42.624Z,32.89
2018-04-14T11:57:45.898Z,32.66
2018-04-14T12:00:50.014Z,32.49
2018-04-14T12:03:54.170Z,33.87
2018-04-14T12:06:57.658Z,29.59
2018-04-14T12:10:00.941Z,32.96
2018-04-14T12:13:05.091Z,32.88
2018-04-14T12:16:08.429Z,31.99
2018-04-14T12:19:11.788Z,28.99
2018-04-14T12:22:15.207Z,30.37
2018-04-14T12:25:18.494Z,31.44
2018-04-14T12:28:21.886Z,31.79
2018-04-14T12:31:25.193Z,29.79
2018-04-14T12:34:28.482Z,30.63
2018-04-14T12:37:31.769Z,31.80
2018-04-14T12:40:35.707Z,29.82
2018-04-14T12:43:39.080Z,31.47
2018-04-14T12:46:42.482Z,28.78
2018-04-14T12:49:48.566Z,31.91
2018-04-14T12:52:51.855Z,31.88
2018-04-14T12:55:55.142Z,30.51
2018-04-14T12:58:58.524Z,30.66
2018-04-14T13:02:02.663Z,32.76
2018-04-14T13:05:09.685Z,31.53
2018-04-14T13:08:12.947Z,31.09
2018-04-14T13:11:16.254Z,29.20
2018-04-14T13:14:19.541Z,29.89
2018-04-14T13:17:22.975Z,31.88
2018-04-14T13:20:28.185Z,33.05
2018-04-14T13:23:34.660Z,31.77
2018-04-14T13:26:38.891Z,31.74
2018-04-14T13:29:42.256Z,32.52
2018-04-14T13:32:47.220Z,30.86
2018-04-14T13:35:50.517Z,30.39
2018-04-14T13:38:53.825Z,30.75
2018-04-14T13:41:58.026Z,29.99
2018-04-14T13:45:01.324Z,32.00
2018-04-14T13:48:04.624Z,32.23
2018-04-14T13:51:07.916Z,33.07
2018-04-14T13:54:11.173Z,32.15
2018-04-14T13:57:14.464Z,31.98
2018-04-14T14:00:17.749Z,32.86
2018-04-14T14:03:21.015Z,31.50
2018-04-14T14:06:24.333Z,31.69
2018-04-14T14:09:28.529Z,31.48
2018-04-14T14:12:31.820Z,30.44
2018-04-14T14:15:36.059Z,30.15
2018-04-14T14:18:39.355Z,31.31
2018-04-14T14:21:42.636Z,32.03
2018-04-14T14:24:45.950Z,31.30
2018-04-14T14:27:49.255Z,30.05
2018-04-14T14:30:52.529Z,31.06
2018-04-14T14:33:55.826Z,31.29
2018-04-14T14:36:59.855Z,30.93
2018-04-14T14:40:03.169Z,31.31
2018-04-14T14:43:06.474Z,30.06
2018-04-14T14:46:10.487Z,31.11
2018-04-14T14:49:13.755Z,30.61
2018-04-14T14:52:17.052Z,31.53
2018-04-14T14:55:20.363Z,30.92
2018-04-14T14:58:23.816Z,31.76
2018-04-14T15:01:27.083Z,32.02
2018-04-14T15:04:30.449Z,31.64
2018-04-14T15:07:34.673Z,31.44
2018-04-14T15:10:37.964Z,30.74
2018-04-14T15:13:41.261Z,31.68
2018-04-14T15:16:45.631Z,30.92
2018-04-14T15:19:49.933Z,31.11
2018-04-14T15:22:54.197Z,31.01
2018-04-14T15:29:32.562Z,31.49
2018-04-14T15:32:36.783Z,31.21
2018-04-14T15:35:40.087Z,31.62
2018-04-14T15:38:43.404Z,31.75
2018-04-14T15:41:47.503Z,33.23
2018-04-14T15:44:50.798Z,32.73
2018-04-14T15:47:54.113Z,32.36
2018-04-14T15:50:57.453Z,32.30
2018-04-14T15:54:00.721Z,32.11
2018-04-14T15:57:04.470Z,32.69
2018-04-14T16:00:08.891Z,32.00
2018-04-14T16:03:13.149Z,31.89
2018-04-14T16:06:16.443Z,32.28
2018-04-14T16:09:30.358Z,32.16
2018-04-14T16:12:46.305Z,33.27
2018-04-14T16:15:49.579Z,32.81
2018-04-14T16:18:52.879Z,34.27
2018-04-14T16:21:56.262Z,33.93
2018-04-14T16:25:00.298Z,34.54
2018-04-14T16:28:04.579Z,33.73
2018-04-14T16:31:07.927Z,33.88
2018-04-14T16:34:11.225Z,33.83
2018-04-14T16:37:14.546Z,34.05
2018-04-14T16:40:17.966Z,34.01
2018-04-14T16:43:21.221Z,34.68
2018-04-14T16:46:24.574Z,35.28
2018-04-14T16:49:29.058Z,35.19
2018-04-14T16:52:32.331Z,35.94
2018-04-14T16:55:36.363Z,36.52
2018-04-14T16:58:39.672Z,36.64
2018-04-14T17:01:42.990Z,36.78
2018-04-14T17:04:46.254Z,37.35
2018-04-14T17:07:49.866Z,37.18
2018-04-14T17:10:53.149Z,37.33
2018-04-14T17:13:56.977Z,37.77
2018-04-14T17:17:00.277Z,38.40
2018-04-14T17:20:04.828Z,38.54
2018-04-14T17:23:08.182Z,38.82
2018-04-14T17:26:11.503Z,39.18
2018-04-14T17:29:14.946Z,39.22
2018-04-14T17:32:18.274Z,39.73
2018-04-14T17:35:22.303Z,40.14
2018-04-14T17:38:25.590Z,40.35
2018-04-14T17:41:28.923Z,41.24
2018-04-14T17:44:32.190Z,41.52
2018-04-14T17:47:36.211Z,41.86
2018-04-14T17:50:39.526Z,42.50
2018-04-14T17:53:42.793Z,42.63
2018-04-14T17:56:46.851Z,43.06
2018-04-14T17:59:50.106Z,43.46
2018-04-14T18:02:54.228Z,43.91
2018-04-14T18:05:58.259Z,44.19
2018-04-14T18:09:01.801Z,44.51
2018-04-14T18:12:05.158Z,45.00
2018-04-14T18:15:08.438Z,45.23
2018-04-14T18:18:12.658Z,45.78
2018-04-14T18:21:17.044Z,45.96
2018-04-14T18:24:20.390Z,46.30
2018-04-14T18:27:24.507Z,46.76
2018-04-14T18:30:27.878Z,47.49
2018-04-14T18:33:31.199Z,48.09
2018-04-14T18:36:35.349Z,47.79
2018-04-14T18:39:38.642Z,47.77
2018-04-14T18:42:41.918Z,48.14
2018-04-14T18:45:46.044Z,48.08
2018-04-14T18:48:49.331Z,48.82
2018-04-14T18:51:53.456Z,48.99
2018-04-14T18:54:57.227Z,48.96
2018-04-14T18:58:00.655Z,49.57
2018-04-14T19:01:04.809Z,50.08
2018-04-14T19:04:08.130Z,49.90
2018-04-14T19:07:11.474Z,50.53
2018-04-14T19:10:15.565Z,50.34
2018-04-14T19:13:19.655Z,51.33
2018-04-14T19:16:22.922Z,51.42
2018-04-14T19:19:26.507Z,52.80
2018-04-14T19:22:29.901Z,55.17
2018-04-14T19:25:33.926Z,55.34
2018-04-14T19:28:37.999Z,56.00
2018-04-14T19:31:41.333Z,55.48
2018-04-14T19:34:45.359Z,54.59
2018-04-14T19:37:49.475Z,54.30
2018-04-14T19:40:52.661Z,54.77
2018-04-14T19:43:56.685Z,54.75
2018-04-14T19:47:00.807Z,54.67
2018-04-14T19:50:05.374Z,57.84
2018-04-14T19:53:08.655Z,60.64
2018-04-14T19:56:11.932Z,61.62
2018-04-14T19:59:15.210Z,61.90
2018-04-14T20:02:19.245Z,60.48
2018-04-14T20:05:22.518Z,60.63
2018-04-14T20:08:25.841Z,60.70
2018-04-14T20:11:29.134Z,62.82
2018-04-14T20:14:33.369Z,63.53
2018-04-14T20:17:36.638Z,63.76
2018-04-14T20:20:40.685Z,65.10
2018-04-14T20:23:44.052Z,65.17
2018-04-14T20:26:48.091Z,63.42
2018-04-14T20:29:51.367Z,62.95
2018-04-14T20:32:54.677Z,63.06
2018-04-14T20:35:58.709Z,62.00
2018-04-14T20:39:02.017Z,61.72
2018-04-14T20:42:05.287Z,61.97
2018-04-14T20:45:09.323Z,63.79
2018-04-14T20:48:12.599Z,62.53
2018-04-14T20:51:16.617Z,62.26
2018-04-14T20:54:20.636Z,62.25
2018-04-14T20:57:23.938Z,62.22
2018-04-14T21:00:27.230Z,62.56
2018-04-14T21:03:31.286Z,62.84
2018-04-14T21:06:34.840Z,62.80
2018-04-14T21:09:38.874Z,64.29
2018-04-14T21:12:42.536Z,63.81
2018-04-14T21:15:48.471Z,63.75
2018-04-14T21:18:51.727Z,64.66
2018-04-14T21:21:55.014Z,64.34
2018-04-14T21:24:58.307Z,63.80
2018-04-14T21:28:01.762Z,64.24
2018-04-14T21:31:05.052Z,63.83
2018-04-14T21:34:08.685Z,64.07
2018-04-14T21:37:12.108Z,64.40
2018-04-14T21:40:15.390Z,65.05
2018-04-14T21:43:18.645Z,66.29
2018-04-14T21:46:22.683Z,70.23
2018-04-14T21:49:26.006Z,70.09
2018-04-14T21:52:29.276Z,68.84
2018-04-14T21:55:32.533Z,68.68
2018-04-14T21:58:36.616Z,68.76
2018-04-14T22:01:39.859Z,66.78
2018-04-14T22:04:43.126Z,66.90
2018-04-14T22:07:46.373Z,67.06
2018-04-14T22:10:49.640Z,66.05
2018-04-14T22:13:53.687Z,66.40
2018-04-14T22:16:56.939Z,65.99
2018-04-14T22:20:00.186Z,67.16
2018-04-14T22:23:03.579Z,66.72
2018-04-14T22:26:06.848Z,66.46
2018-04-14T22:29:10.910Z,67.32
2018-04-14T22:32:14.158Z,67.00
2018-04-14T22:35:18.234Z,67.06
2018-04-14T22:38:21.502Z,67.50
2018-04-14T22:41:24.780Z,66.64
2018-04-14T22:44:28.797Z,66.59
2018-04-14T22:47:32.806Z,67.50
2018-04-14T22:50:36.098Z,68.27
2018-04-14T22:53:40.143Z,68.51
2018-04-14T22:56:43.382Z,68.07
2018-04-14T22:59:46.742Z,68.19
2018-04-14T23:02:49.997Z,68.32
2018-04-14T23:05:53.244Z,68.24
2018-04-14T23:08:56.503Z,68.86
2018-04-14T23:12:00.537Z,68.45
2018-04-14T23:15:03.789Z,68.48
2018-04-14T23:18:07.051Z,68.85
2018-04-14T23:21:10.352Z,68.97
2018-04-14T23:24:13.633Z,68.89
2018-04-14T23:27:16.887Z,68.99
2018-04-14T23:30:20.154Z,69.36
2018-04-14T23:33:23.405Z,69.53
2018-04-14T23:36:27.437Z,69.64
2018-04-14T23:39:30.678Z,69.23
2018-04-14T23:42:33.933Z,69.26
2018-04-14T23:45:37.178Z,69.39
2018-04-14T23:48:40.430Z,69.25
2018-04-14T23:51:43.688Z,69.32
2018-04-14T23:54:46.945Z,69.37
2018-04-14T23:57:50.191Z,69.73
